sensor_id;sensor_type;location;lat;lon;timestamp;temperature;humidity
23188;DHT22;11762;59.878;17.686;2023-03-18T00:01:32;2.40;99.90
23188;DHT22;11762;59.878;17.686;2023-03-18T00:03:59;2.40;99.90
23188;DHT22;11762;59.878;17.686;2023-03-18T00:06:26;2.40;99.90
23188;DHT22;11762;59.878;17.686;2023-03-18T00:08:54;2.40;99.90
23188;DHT22;11762;59.878;17.686;2023-03-18T00:11:23;2.40;99.90
23188;DHT22;11762;59.878;17.686;2023-03-18T00:13:51;2.40;99.90
23188;DHT22;11762;59.878;17.686;2023-03-18T00:16:18;2.40;99.90
23188;DHT22;11762;59.878;17.686;2023-03-18T00:18:48;2.50;99.90
23188;DHT22;11762;59.878;17.686;2023-03-18T00:21:15;2.50;99.90
23188;DHT22;11762;59.878;17.686;2023-03-18T00:23:43;2.50;99.90
23188;DHT22;11762;59.878;17.686;2023-03-18T00:26:13;2.50;99.90
23188;DHT22;11762;59.878;17.686;2023-03-18T00:28:42;2.50;99.90
23188;DHT22;11762;59.878;17.686;2023-03-18T00:31:10;2.50;99.90
23188;DHT22;11762;59.878;17.686;2023-03-18T00:33:40;2.50;99.90
23188;DHT22;11762;59.878;17.686;2023-03-18T00:36:11;2.60;99.90
23188;DHT22;11762;59.878;17.686;2023-03-18T00:38:39;2.60;99.90
23188;DHT22;11762;59.878;17.686;2023-03-18T00:41:07;2.60;99.90
23188;DHT22;11762;59.878;17.686;2023-03-18T00:43:42;2.60;99.90
23188;DHT22;11762;59.878;17.686;2023-03-18T00:46:18;2.60;99.90
23188;DHT22;11762;59.878;17.686;2023-03-18T00:48:46;2.60;99.90
23188;DHT22;11762;59.878;17.686;2023-03-18T00:51:14;2.60;99.90
23188;DHT22;11762;59.878;17.686;2023-03-18T00:53:44;2.60;99.90
23188;DHT22;11762;59.878;17.686;2023-03-18T00:56:11;2.60;99.90
23188;DHT22;11762;59.878;17.686;2023-03-18T00:58:39;2.70;99.90
23188;DHT22;11762;59.878;17.686;2023-03-18T01:01:08;2.70;99.90
23188;DHT22;11762;59.878;17.686;2023-03-18T01:03:35;2.70;99.90
23188;DHT22;11762;59.878;17.686;2023-03-18T01:06:03;2.70;99.90
23188;DHT22;11762;59.878;17.686;2023-03-18T01:08:30;2.70;99.90
23188;DHT22;11762;59.878;17.686;2023-03-18T01:10:58;2.70;99.90
23188;DHT22;11762;59.878;17.686;2023-03-18T01:13:25;2.70;99.90
23188;DHT22;11762;59.878;17.686;2023-03-18T01:15:52;2.70;99.90
23188;DHT22;11762;59.878;17.686;2023-03-18T01:18:22;2.70;99.90
23188;DHT22;11762;59.878;17.686;2023-03-18T01:20:49;2.70;99.90
23188;DHT22;11762;59.878;17.686;2023-03-18T01:23:17;2.70;99.90
23188;DHT22;11762;59.878;17.686;2023-03-18T01:25:44;2.70;99.90
23188;DHT22;11762;59.878;17.686;2023-03-18T01:28:12;2.70;99.90
23188;DHT22;11762;59.878;17.686;2023-03-18T01:30:39;2.70;99.90
23188;DHT22;11762;59.878;17.686;2023-03-18T01:33:07;2.80;99.90
23188;DHT22;11762;59.878;17.686;2023-03-18T01:35:36;2.80;99.90
23188;DHT22;11762;59.878;17.686;2023-03-18T01:38:04;2.80;99.90
23188;DHT22;11762;59.878;17.686;2023-03-18T01:40:33;2.80;99.90
23188;DHT22;11762;59.878;17.686;2023-03-18T01:43:10;2.80;99.90
23188;DHT22;11762;59.878;17.686;2023-03-18T01:45:38;2.80;99.90
23188;DHT22;11762;59.878;17.686;2023-03-18T01:48:09;2.80;99.90
23188;DHT22;11762;59.878;17.686;2023-03-18T01:50:42;2.80;99.90
23188;DHT22;11762;59.878;17.686;2023-03-18T01:53:13;2.80;99.90
23188;DHT22;11762;59.878;17.686;2023-03-18T01:55:41;2.90;99.90
23188;DHT22;11762;59.878;17.686;2023-03-18T01:58:12;2.90;99.90
23188;DHT22;11762;59.878;17.686;2023-03-18T02:00:45;2.90;99.90
23188;DHT22;11762;59.878;17.686;2023-03-18T02:03:14;2.90;99.90
23188;DHT22;11762;59.878;17.686;2023-03-18T02:05:43;2.90;99.90
23188;DHT22;11762;59.878;17.686;2023-03-18T02:08:10;2.90;99.90
23188;DHT22;11762;59.878;17.686;2023-03-18T02:10:37;2.90;99.90
23188;DHT22;11762;59.878;17.686;2023-03-18T02:13:06;2.90;99.90
23188;DHT22;11762;59.878;17.686;2023-03-18T02:15:37;2.90;99.90
23188;DHT22;11762;59.878;17.686;2023-03-18T02:18:07;2.90;99.90
23188;DHT22;11762;59.878;17.686;2023-03-18T02:20:42;2.90;99.90
23188;DHT22;11762;59.878;17.686;2023-03-18T02:23:18;2.90;99.90
23188;DHT22;11762;59.878;17.686;2023-03-18T02:25:52;3.00;99.90
23188;DHT22;11762;59.878;17.686;2023-03-18T02:28:24;3.00;99.90
23188;DHT22;11762;59.878;17.686;2023-03-18T02:30:53;3.00;99.90
23188;DHT22;11762;59.878;17.686;2023-03-18T02:33:24;3.00;99.90
23188;DHT22;11762;59.878;17.686;2023-03-18T02:35:56;2.90;99.90
23188;DHT22;11762;59.878;17.686;2023-03-18T02:38:26;2.90;99.90
23188;DHT22;11762;59.878;17.686;2023-03-18T02:40:53;3.00;99.90
23188;DHT22;11762;59.878;17.686;2023-03-18T02:43:25;3.00;99.90
23188;DHT22;11762;59.878;17.686;2023-03-18T02:46:11;3.00;99.90
23188;DHT22;11762;59.878;17.686;2023-03-18T02:48:41;3.00;99.90
23188;DHT22;11762;59.878;17.686;2023-03-18T02:51:11;3.00;99.90
23188;DHT22;11762;59.878;17.686;2023-03-18T02:53:39;3.10;99.90
23188;DHT22;11762;59.878;17.686;2023-03-18T02:56:07;3.00;99.90
23188;DHT22;11762;59.878;17.686;2023-03-18T02:58:36;3.00;99.90
23188;DHT22;11762;59.878;17.686;2023-03-18T03:01:04;3.00;99.90
23188;DHT22;11762;59.878;17.686;2023-03-18T03:03:31;3.00;99.90
23188;DHT22;11762;59.878;17.686;2023-03-18T03:06:00;3.00;99.90
23188;DHT22;11762;59.878;17.686;2023-03-18T03:08:28;3.00;99.90
23188;DHT22;11762;59.878;17.686;2023-03-18T03:10:55;3.00;99.90
23188;DHT22;11762;59.878;17.686;2023-03-18T03:13:23;3.00;99.90
23188;DHT22;11762;59.878;17.686;2023-03-18T03:15:52;3.00;99.90
23188;DHT22;11762;59.878;17.686;2023-03-18T03:18:19;3.00;99.90
23188;DHT22;11762;59.878;17.686;2023-03-18T03:20:46;3.00;99.90
23188;DHT22;11762;59.878;17.686;2023-03-18T03:23:14;3.00;99.90
23188;DHT22;11762;59.878;17.686;2023-03-18T03:25:42;2.90;99.90
23188;DHT22;11762;59.878;17.686;2023-03-18T03:28:10;2.90;99.90
23188;DHT22;11762;59.878;17.686;2023-03-18T03:30:38;3.00;99.90
23188;DHT22;11762;59.878;17.686;2023-03-18T03:33:06;3.00;99.90
23188;DHT22;11762;59.878;17.686;2023-03-18T03:35:35;2.90;99.90
23188;DHT22;11762;59.878;17.686;2023-03-18T03:38:03;2.90;99.90
23188;DHT22;11762;59.878;17.686;2023-03-18T03:40:30;2.90;99.90
23188;DHT22;11762;59.878;17.686;2023-03-18T03:42:57;2.80;99.90
23188;DHT22;11762;59.878;17.686;2023-03-18T03:45:25;2.80;99.90
23188;DHT22;11762;59.878;17.686;2023-03-18T03:47:52;2.80;99.90
23188;DHT22;11762;59.878;17.686;2023-03-18T03:50:21;2.80;99.90
23188;DHT22;11762;59.878;17.686;2023-03-18T03:52:48;2.80;99.90
23188;DHT22;11762;59.878;17.686;2023-03-18T03:55:17;2.80;99.90
23188;DHT22;11762;59.878;17.686;2023-03-18T03:57:45;2.80;99.90
23188;DHT22;11762;59.878;17.686;2023-03-18T04:00:15;2.80;99.90
23188;DHT22;11762;59.878;17.686;2023-03-18T04:02:43;2.80;99.90
23188;DHT22;11762;59.878;17.686;2023-03-18T04:05:12;2.80;99.90
23188;DHT22;11762;59.878;17.686;2023-03-18T04:07:41;2.80;99.90
23188;DHT22;11762;59.878;17.686;2023-03-18T04:10:10;2.80;99.90
23188;DHT22;11762;59.878;17.686;2023-03-18T04:12:38;2.80;99.90
23188;DHT22;11762;59.878;17.686;2023-03-18T04:15:07;2.80;99.90
23188;DHT22;11762;59.878;17.686;2023-03-18T04:17:35;2.90;99.90
23188;DHT22;11762;59.878;17.686;2023-03-18T04:20:02;2.90;99.90
23188;DHT22;11762;59.878;17.686;2023-03-18T04:22:30;2.80;99.90
23188;DHT22;11762;59.878;17.686;2023-03-18T04:24:58;2.90;99.90
23188;DHT22;11762;59.878;17.686;2023-03-18T04:27:25;2.90;99.90
23188;DHT22;11762;59.878;17.686;2023-03-18T04:29:53;2.90;99.90
23188;DHT22;11762;59.878;17.686;2023-03-18T04:32:21;2.90;99.90
23188;DHT22;11762;59.878;17.686;2023-03-18T04:34:48;2.90;99.90
23188;DHT22;11762;59.878;17.686;2023-03-18T04:37:15;2.90;99.90
23188;DHT22;11762;59.878;17.686;2023-03-18T04:39:44;2.90;99.90
23188;DHT22;11762;59.878;17.686;2023-03-18T04:42:13;2.90;99.90
23188;DHT22;11762;59.878;17.686;2023-03-18T04:44:41;2.90;99.90
23188;DHT22;11762;59.878;17.686;2023-03-18T04:47:08;2.90;99.90
23188;DHT22;11762;59.878;17.686;2023-03-18T04:49:36;2.90;99.90
23188;DHT22;11762;59.878;17.686;2023-03-18T04:52:03;2.90;99.90
23188;DHT22;11762;59.878;17.686;2023-03-18T04:54:31;2.90;99.90
23188;DHT22;11762;59.878;17.686;2023-03-18T04:56:58;2.90;99.90
23188;DHT22;11762;59.878;17.686;2023-03-18T04:59:26;2.90;99.90
23188;DHT22;11762;59.878;17.686;2023-03-18T05:01:53;2.90;99.90
23188;DHT22;11762;59.878;17.686;2023-03-18T05:04:20;2.90;99.90
23188;DHT22;11762;59.878;17.686;2023-03-18T05:06:48;2.90;99.90
23188;DHT22;11762;59.878;17.686;2023-03-18T05:09:16;3.00;99.90
23188;DHT22;11762;59.878;17.686;2023-03-18T05:11:43;3.00;99.90
23188;DHT22;11762;59.878;17.686;2023-03-18T05:14:11;3.00;99.90
23188;DHT22;11762;59.878;17.686;2023-03-18T05:16:39;3.00;99.90
23188;DHT22;11762;59.878;17.686;2023-03-18T05:19:07;3.00;99.90
23188;DHT22;11762;59.878;17.686;2023-03-18T05:21:35;3.00;99.90
23188;DHT22;11762;59.878;17.686;2023-03-18T05:24:02;3.00;99.90
23188;DHT22;11762;59.878;17.686;2023-03-18T05:26:29;3.00;99.90
23188;DHT22;11762;59.878;17.686;2023-03-18T05:28:56;3.00;99.90
23188;DHT22;11762;59.878;17.686;2023-03-18T05:31:23;3.00;99.90
23188;DHT22;11762;59.878;17.686;2023-03-18T05:33:52;3.00;99.90
23188;DHT22;11762;59.878;17.686;2023-03-18T05:36:19;3.00;99.90
23188;DHT22;11762;59.878;17.686;2023-03-18T05:38:46;3.00;99.90
23188;DHT22;11762;59.878;17.686;2023-03-18T05:41:13;3.00;99.90
23188;DHT22;11762;59.878;17.686;2023-03-18T05:43:41;3.00;99.90
23188;DHT22;11762;59.878;17.686;2023-03-18T05:46:08;3.00;99.90
23188;DHT22;11762;59.878;17.686;2023-03-18T05:48:35;3.00;99.90
23188;DHT22;11762;59.878;17.686;2023-03-18T05:51:04;3.00;99.90
23188;DHT22;11762;59.878;17.686;2023-03-18T05:53:31;3.00;99.90
23188;DHT22;11762;59.878;17.686;2023-03-18T05:55:58;3.00;99.90
23188;DHT22;11762;59.878;17.686;2023-03-18T05:58:26;3.00;99.90
23188;DHT22;11762;59.878;17.686;2023-03-18T06:00:56;3.00;99.90
23188;DHT22;11762;59.878;17.686;2023-03-18T06:03:24;3.00;99.90
23188;DHT22;11762;59.878;17.686;2023-03-18T06:05:52;3.10;99.90
23188;DHT22;11762;59.878;17.686;2023-03-18T06:08:20;3.10;99.90
23188;DHT22;11762;59.878;17.686;2023-03-18T06:10:48;3.10;99.90
23188;DHT22;11762;59.878;17.686;2023-03-18T06:13:15;3.10;99.90
23188;DHT22;11762;59.878;17.686;2023-03-18T06:15:42;3.10;99.90
23188;DHT22;11762;59.878;17.686;2023-03-18T06:18:09;3.10;99.90
23188;DHT22;11762;59.878;17.686;2023-03-18T06:20:36;3.10;99.90
23188;DHT22;11762;59.878;17.686;2023-03-18T06:23:03;3.20;99.90
23188;DHT22;11762;59.878;17.686;2023-03-18T06:25:32;3.20;99.90
23188;DHT22;11762;59.878;17.686;2023-03-18T06:27:59;3.20;99.90
23188;DHT22;11762;59.878;17.686;2023-03-18T06:30:26;3.30;99.90
23188;DHT22;11762;59.878;17.686;2023-03-18T06:32:55;3.20;99.90
23188;DHT22;11762;59.878;17.686;2023-03-18T06:35:22;3.20;99.90
23188;DHT22;11762;59.878;17.686;2023-03-18T06:37:51;3.20;99.90
23188;DHT22;11762;59.878;17.686;2023-03-18T06:40:19;3.30;99.90
23188;DHT22;11762;59.878;17.686;2023-03-18T06:42:48;3.30;99.90
23188;DHT22;11762;59.878;17.686;2023-03-18T06:45:15;3.40;99.90
23188;DHT22;11762;59.878;17.686;2023-03-18T06:47:43;3.40;99.90
23188;DHT22;11762;59.878;17.686;2023-03-18T06:50:11;3.40;99.90
23188;DHT22;11762;59.878;17.686;2023-03-18T06:52:40;3.50;99.90
23188;DHT22;11762;59.878;17.686;2023-03-18T06:55:07;3.50;99.90
23188;DHT22;11762;59.878;17.686;2023-03-18T06:57:35;3.50;99.90
23188;DHT22;11762;59.878;17.686;2023-03-18T07:00:04;3.50;99.90
23188;DHT22;11762;59.878;17.686;2023-03-18T07:02:31;3.50;99.90
23188;DHT22;11762;59.878;17.686;2023-03-18T07:04:58;3.50;99.90
23188;DHT22;11762;59.878;17.686;2023-03-18T07:07:26;3.50;99.90
23188;DHT22;11762;59.878;17.686;2023-03-18T07:09:53;3.60;99.90
23188;DHT22;11762;59.878;17.686;2023-03-18T07:12:20;3.60;99.90
23188;DHT22;11762;59.878;17.686;2023-03-18T07:14:48;3.60;99.90
23188;DHT22;11762;59.878;17.686;2023-03-18T07:17:16;3.60;99.90
23188;DHT22;11762;59.878;17.686;2023-03-18T07:19:43;3.70;99.90
23188;DHT22;11762;59.878;17.686;2023-03-18T07:22:11;3.60;99.90
23188;DHT22;11762;59.878;17.686;2023-03-18T07:24:40;3.70;99.90
23188;DHT22;11762;59.878;17.686;2023-03-18T07:27:07;3.70;99.90
23188;DHT22;11762;59.878;17.686;2023-03-18T07:29:34;3.70;99.90
23188;DHT22;11762;59.878;17.686;2023-03-18T07:32:01;3.70;99.90
23188;DHT22;11762;59.878;17.686;2023-03-18T07:34:30;3.80;99.90
23188;DHT22;11762;59.878;17.686;2023-03-18T07:36:57;3.80;99.90
23188;DHT22;11762;59.878;17.686;2023-03-18T07:39:24;3.80;99.90
23188;DHT22;11762;59.878;17.686;2023-03-18T07:41:52;3.80;99.90
23188;DHT22;11762;59.878;17.686;2023-03-18T07:44:19;3.80;99.90
23188;DHT22;11762;59.878;17.686;2023-03-18T07:46:46;3.90;99.90
23188;DHT22;11762;59.878;17.686;2023-03-18T07:49:13;3.90;99.90
23188;DHT22;11762;59.878;17.686;2023-03-18T07:51:41;3.90;99.90
23188;DHT22;11762;59.878;17.686;2023-03-18T07:54:08;3.90;99.90
23188;DHT22;11762;59.878;17.686;2023-03-18T07:56:35;3.90;99.90
23188;DHT22;11762;59.878;17.686;2023-03-18T07:59:02;3.90;99.90
23188;DHT22;11762;59.878;17.686;2023-03-18T08:01:30;3.90;99.90
23188;DHT22;11762;59.878;17.686;2023-03-18T08:03:57;3.90;99.90
23188;DHT22;11762;59.878;17.686;2023-03-18T08:06:24;4.00;99.90
23188;DHT22;11762;59.878;17.686;2023-03-18T08:08:53;4.00;99.90
23188;DHT22;11762;59.878;17.686;2023-03-18T08:11:20;3.90;99.90
23188;DHT22;11762;59.878;17.686;2023-03-18T08:13:47;4.00;99.90
23188;DHT22;11762;59.878;17.686;2023-03-18T08:16:14;4.00;99.90
23188;DHT22;11762;59.878;17.686;2023-03-18T08:18:41;4.00;99.90
23188;DHT22;11762;59.878;17.686;2023-03-18T08:21:08;4.00;99.90
23188;DHT22;11762;59.878;17.686;2023-03-18T08:23:35;4.00;99.90
23188;DHT22;11762;59.878;17.686;2023-03-18T08:26:04;4.00;99.90
23188;DHT22;11762;59.878;17.686;2023-03-18T08:28:32;4.00;99.90
23188;DHT22;11762;59.878;17.686;2023-03-18T08:30:59;4.00;99.90
23188;DHT22;11762;59.878;17.686;2023-03-18T08:33:26;4.00;99.90
23188;DHT22;11762;59.878;17.686;2023-03-18T08:35:54;4.00;99.90
23188;DHT22;11762;59.878;17.686;2023-03-18T08:38:23;4.00;99.90
23188;DHT22;11762;59.878;17.686;2023-03-18T08:40:50;4.10;99.90
23188;DHT22;11762;59.878;17.686;2023-03-18T08:43:19;4.10;99.90
23188;DHT22;11762;59.878;17.686;2023-03-18T08:45:50;4.10;99.90
23188;DHT22;11762;59.878;17.686;2023-03-18T08:48:18;4.10;99.90
23188;DHT22;11762;59.878;17.686;2023-03-18T08:50:45;4.10;99.90
23188;DHT22;11762;59.878;17.686;2023-03-18T08:53:13;4.10;99.90
23188;DHT22;11762;59.878;17.686;2023-03-18T08:55:40;4.20;99.90
23188;DHT22;11762;59.878;17.686;2023-03-18T08:58:08;4.10;99.90
23188;DHT22;11762;59.878;17.686;2023-03-18T09:00:39;4.10;99.90
23188;DHT22;11762;59.878;17.686;2023-03-18T09:03:07;4.10;99.90
23188;DHT22;11762;59.878;17.686;2023-03-18T09:05:35;4.10;99.90
23188;DHT22;11762;59.878;17.686;2023-03-18T09:08:02;4.10;99.90
23188;DHT22;11762;59.878;17.686;2023-03-18T09:10:29;4.10;99.90
23188;DHT22;11762;59.878;17.686;2023-03-18T09:12:56;4.10;99.90
23188;DHT22;11762;59.878;17.686;2023-03-18T09:15:24;4.10;99.90
23188;DHT22;11762;59.878;17.686;2023-03-18T09:17:53;4.20;99.90
23188;DHT22;11762;59.878;17.686;2023-03-18T09:20:21;4.20;99.90
23188;DHT22;11762;59.878;17.686;2023-03-18T09:22:48;4.20;99.90
23188;DHT22;11762;59.878;17.686;2023-03-18T09:25:17;4.20;99.90
23188;DHT22;11762;59.878;17.686;2023-03-18T09:27:44;4.10;99.90
23188;DHT22;11762;59.878;17.686;2023-03-18T09:30:12;4.10;99.90
23188;DHT22;11762;59.878;17.686;2023-03-18T09:32:40;4.10;99.90
23188;DHT22;11762;59.878;17.686;2023-03-18T09:35:09;4.10;99.90
23188;DHT22;11762;59.878;17.686;2023-03-18T09:37:37;4.10;99.90
23188;DHT22;11762;59.878;17.686;2023-03-18T09:40:06;4.10;99.90
23188;DHT22;11762;59.878;17.686;2023-03-18T09:42:52;4.10;99.90
23188;DHT22;11762;59.878;17.686;2023-03-18T09:45:25;4.20;99.90
23188;DHT22;11762;59.878;17.686;2023-03-18T09:51:00;4.20;99.90
23188;DHT22;11762;59.878;17.686;2023-03-18T09:53:37;4.20;99.90
23188;DHT22;11762;59.878;17.686;2023-03-18T09:56:11;4.20;99.90
23188;DHT22;11762;59.878;17.686;2023-03-18T09:58:45;4.30;99.90
23188;DHT22;11762;59.878;17.686;2023-03-18T10:01:14;4.40;99.90
23188;DHT22;11762;59.878;17.686;2023-03-18T10:03:46;4.30;99.90
23188;DHT22;11762;59.878;17.686;2023-03-18T10:06:18;4.40;99.90
23188;DHT22;11762;59.878;17.686;2023-03-18T10:08:54;4.30;99.90
23188;DHT22;11762;59.878;17.686;2023-03-18T10:11:27;4.30;99.90
23188;DHT22;11762;59.878;17.686;2023-03-18T10:14:13;4.30;99.90
23188;DHT22;11762;59.878;17.686;2023-03-18T10:16:51;4.30;99.90
23188;DHT22;11762;59.878;17.686;2023-03-18T10:19:21;4.30;99.90
23188;DHT22;11762;59.878;17.686;2023-03-18T10:21:55;4.30;99.90
23188;DHT22;11762;59.878;17.686;2023-03-18T10:24:34;4.30;99.90
23188;DHT22;11762;59.878;17.686;2023-03-18T10:27:09;4.40;99.90
23188;DHT22;11762;59.878;17.686;2023-03-18T10:29:41;4.40;99.90
23188;DHT22;11762;59.878;17.686;2023-03-18T10:32:22;4.50;99.90
23188;DHT22;11762;59.878;17.686;2023-03-18T10:35:12;4.50;99.90
23188;DHT22;11762;59.878;17.686;2023-03-18T10:37:51;4.50;99.90
23188;DHT22;11762;59.878;17.686;2023-03-18T10:40:23;4.60;99.90
23188;DHT22;11762;59.878;17.686;2023-03-18T10:42:52;4.60;99.90
23188;DHT22;11762;59.878;17.686;2023-03-18T10:45:22;4.60;99.90
23188;DHT22;11762;59.878;17.686;2023-03-18T10:47:55;4.70;99.90
23188;DHT22;11762;59.878;17.686;2023-03-18T10:50:30;4.60;99.90
23188;DHT22;11762;59.878;17.686;2023-03-18T10:53:04;4.60;99.90
23188;DHT22;11762;59.878;17.686;2023-03-18T10:55:36;4.60;99.90
23188;DHT22;11762;59.878;17.686;2023-03-18T10:58:15;4.60;99.90
23188;DHT22;11762;59.878;17.686;2023-03-18T11:00:43;4.60;99.90
23188;DHT22;11762;59.878;17.686;2023-03-18T11:03:19;4.60;99.90
23188;DHT22;11762;59.878;17.686;2023-03-18T11:05:47;4.60;99.90
23188;DHT22;11762;59.878;17.686;2023-03-18T11:08:34;4.80;99.90
23188;DHT22;11762;59.878;17.686;2023-03-18T11:11:14;4.80;99.90
23188;DHT22;11762;59.878;17.686;2023-03-18T11:13:45;4.90;99.90
23188;DHT22;11762;59.878;17.686;2023-03-18T11:16:21;4.90;99.90
23188;DHT22;11762;59.878;17.686;2023-03-18T11:18:50;4.80;99.90
23188;DHT22;11762;59.878;17.686;2023-03-18T11:21:19;4.80;99.90
23188;DHT22;11762;59.878;17.686;2023-03-18T11:23:55;4.70;99.90
23188;DHT22;11762;59.878;17.686;2023-03-18T11:26:43;4.80;99.90
23188;DHT22;11762;59.878;17.686;2023-03-18T11:29:17;4.80;99.90
23188;DHT22;11762;59.878;17.686;2023-03-18T11:31:50;4.80;99.90
23188;DHT22;11762;59.878;17.686;2023-03-18T11:34:20;4.80;99.90
23188;DHT22;11762;59.878;17.686;2023-03-18T11:36:55;4.70;99.90
23188;DHT22;11762;59.878;17.686;2023-03-18T11:39:27;4.80;99.90
23188;DHT22;11762;59.878;17.686;2023-03-18T11:41:56;4.80;99.90
23188;DHT22;11762;59.878;17.686;2023-03-18T11:44:27;4.80;99.90
23188;DHT22;11762;59.878;17.686;2023-03-18T11:47:00;4.80;99.90
23188;DHT22;11762;59.878;17.686;2023-03-18T11:49:29;4.70;99.90
23188;DHT22;11762;59.878;17.686;2023-03-18T11:52:05;4.70;99.90
23188;DHT22;11762;59.878;17.686;2023-03-18T11:55:18;4.70;99.90
23188;DHT22;11762;59.878;17.686;2023-03-18T11:58:10;4.70;99.90
23188;DHT22;11762;59.878;17.686;2023-03-18T12:00:49;4.70;99.90
23188;DHT22;11762;59.878;17.686;2023-03-18T12:06:32;4.80;99.90
23188;DHT22;11762;59.878;17.686;2023-03-18T12:09:05;4.80;99.90
23188;DHT22;11762;59.878;17.686;2023-03-18T12:11:49;4.70;99.90
23188;DHT22;11762;59.878;17.686;2023-03-18T12:14:25;4.70;99.90
23188;DHT22;11762;59.878;17.686;2023-03-18T12:17:01;4.70;99.90
23188;DHT22;11762;59.878;17.686;2023-03-18T12:22:39;4.60;99.90
23188;DHT22;11762;59.878;17.686;2023-03-18T12:25:22;4.60;99.90
23188;DHT22;11762;59.878;17.686;2023-03-18T12:27:59;4.50;99.90
23188;DHT22;11762;59.878;17.686;2023-03-18T12:30:55;4.60;99.90
23188;DHT22;11762;59.878;17.686;2023-03-18T12:33:41;4.50;99.90
23188;DHT22;11762;59.878;17.686;2023-03-18T12:36:17;4.50;99.90
23188;DHT22;11762;59.878;17.686;2023-03-18T12:39:00;4.50;99.90
23188;DHT22;11762;59.878;17.686;2023-03-18T12:41:39;4.50;99.90
23188;DHT22;11762;59.878;17.686;2023-03-18T12:44:22;4.50;99.90
23188;DHT22;11762;59.878;17.686;2023-03-18T12:46:57;4.50;99.90
23188;DHT22;11762;59.878;17.686;2023-03-18T12:49:29;4.50;99.90
23188;DHT22;11762;59.878;17.686;2023-03-18T12:52:01;4.50;99.90
23188;DHT22;11762;59.878;17.686;2023-03-18T12:54:35;4.60;99.90
23188;DHT22;11762;59.878;17.686;2023-03-18T12:57:06;4.70;99.90
23188;DHT22;11762;59.878;17.686;2023-03-18T12:59:41;4.80;99.90
23188;DHT22;11762;59.878;17.686;2023-03-18T13:02:19;4.80;99.90
23188;DHT22;11762;59.878;17.686;2023-03-18T13:04:55;4.80;99.90
23188;DHT22;11762;59.878;17.686;2023-03-18T13:07:26;4.80;99.90
23188;DHT22;11762;59.878;17.686;2023-03-18T13:10:03;4.80;99.90
23188;DHT22;11762;59.878;17.686;2023-03-18T13:12:36;4.80;99.90
23188;DHT22;11762;59.878;17.686;2023-03-18T13:15:10;4.80;99.90
23188;DHT22;11762;59.878;17.686;2023-03-18T13:17:41;4.80;99.90
23188;DHT22;11762;59.878;17.686;2023-03-18T13:20:12;4.80;99.90
23188;DHT22;11762;59.878;17.686;2023-03-18T13:25:54;4.90;99.90
23188;DHT22;11762;59.878;17.686;2023-03-18T13:31:27;4.90;99.90
23188;DHT22;11762;59.878;17.686;2023-03-18T13:34:21;4.90;99.90
23188;DHT22;11762;59.878;17.686;2023-03-18T13:37:26;4.90;99.90
23188;DHT22;11762;59.878;17.686;2023-03-18T13:40:21;5.00;99.90
23188;DHT22;11762;59.878;17.686;2023-03-18T13:42:56;4.90;99.90
23188;DHT22;11762;59.878;17.686;2023-03-18T13:45:28;4.80;99.90
23188;DHT22;11762;59.878;17.686;2023-03-18T13:47:59;4.80;99.90
23188;DHT22;11762;59.878;17.686;2023-03-18T13:50:32;4.80;99.90
23188;DHT22;11762;59.878;17.686;2023-03-18T13:53:01;4.80;99.90
23188;DHT22;11762;59.878;17.686;2023-03-18T13:55:31;4.80;99.90
23188;DHT22;11762;59.878;17.686;2023-03-18T13:58:18;4.90;99.90
23188;DHT22;11762;59.878;17.686;2023-03-18T14:01:10;4.90;99.90
23188;DHT22;11762;59.878;17.686;2023-03-18T14:03:55;4.90;99.90
23188;DHT22;11762;59.878;17.686;2023-03-18T14:06:23;4.90;99.90
23188;DHT22;11762;59.878;17.686;2023-03-18T14:08:51;4.80;99.90
23188;DHT22;11762;59.878;17.686;2023-03-18T14:11:50;4.80;99.90
23188;DHT22;11762;59.878;17.686;2023-03-18T14:14:37;4.70;99.90
23188;DHT22;11762;59.878;17.686;2023-03-18T14:17:19;4.80;99.90
23188;DHT22;11762;59.878;17.686;2023-03-18T14:19:52;4.80;99.90
23188;DHT22;11762;59.878;17.686;2023-03-18T14:22:22;4.80;99.90
23188;DHT22;11762;59.878;17.686;2023-03-18T14:25:19;4.80;99.90
23188;DHT22;11762;59.878;17.686;2023-03-18T14:27:50;4.80;99.90
23188;DHT22;11762;59.878;17.686;2023-03-18T14:30:39;4.70;99.90
23188;DHT22;11762;59.878;17.686;2023-03-18T14:33:30;4.80;99.90
23188;DHT22;11762;59.878;17.686;2023-03-18T14:36:03;4.80;99.90
23188;DHT22;11762;59.878;17.686;2023-03-18T14:38:36;4.80;99.90
23188;DHT22;11762;59.878;17.686;2023-03-18T14:41:13;4.80;99.90
23188;DHT22;11762;59.878;17.686;2023-03-18T14:43:46;4.70;99.90
23188;DHT22;11762;59.878;17.686;2023-03-18T14:46:19;4.70;99.90
23188;DHT22;11762;59.878;17.686;2023-03-18T14:48:50;4.70;99.90
23188;DHT22;11762;59.878;17.686;2023-03-18T14:51:21;4.70;99.90
23188;DHT22;11762;59.878;17.686;2023-03-18T14:53:52;4.70;99.90
23188;DHT22;11762;59.878;17.686;2023-03-18T14:56:21;4.70;99.90
23188;DHT22;11762;59.878;17.686;2023-03-18T14:58:51;4.70;99.90
23188;DHT22;11762;59.878;17.686;2023-03-18T15:01:22;4.70;99.90
23188;DHT22;11762;59.878;17.686;2023-03-18T15:03:52;4.70;99.90
23188;DHT22;11762;59.878;17.686;2023-03-18T15:06:24;4.60;99.90
23188;DHT22;11762;59.878;17.686;2023-03-18T15:08:56;4.60;99.90
23188;DHT22;11762;59.878;17.686;2023-03-18T15:11:24;4.60;99.90
23188;DHT22;11762;59.878;17.686;2023-03-18T15:13:53;4.60;99.90
23188;DHT22;11762;59.878;17.686;2023-03-18T15:16:22;4.60;99.90
23188;DHT22;11762;59.878;17.686;2023-03-18T15:18:53;4.70;99.90
23188;DHT22;11762;59.878;17.686;2023-03-18T15:21:24;4.70;99.90
23188;DHT22;11762;59.878;17.686;2023-03-18T15:23:53;4.60;99.90
23188;DHT22;11762;59.878;17.686;2023-03-18T15:26:22;4.70;99.90
23188;DHT22;11762;59.878;17.686;2023-03-18T15:28:53;4.60;99.90
23188;DHT22;11762;59.878;17.686;2023-03-18T15:31:24;4.60;99.90
23188;DHT22;11762;59.878;17.686;2023-03-18T15:34:04;4.60;99.90
23188;DHT22;11762;59.878;17.686;2023-03-18T15:36:40;4.60;99.90
23188;DHT22;11762;59.878;17.686;2023-03-18T15:39:21;4.70;99.90
23188;DHT22;11762;59.878;17.686;2023-03-18T15:41:54;4.70;99.90
23188;DHT22;11762;59.878;17.686;2023-03-18T15:44:24;4.70;99.90
23188;DHT22;11762;59.878;17.686;2023-03-18T15:46:53;4.70;99.90
23188;DHT22;11762;59.878;17.686;2023-03-18T15:49:25;4.70;99.90
23188;DHT22;11762;59.878;17.686;2023-03-18T15:52:00;4.70;99.90
23188;DHT22;11762;59.878;17.686;2023-03-18T15:54:29;4.70;99.90
23188;DHT22;11762;59.878;17.686;2023-03-18T15:57:10;4.70;99.90
23188;DHT22;11762;59.878;17.686;2023-03-18T15:59:37;4.70;99.90
23188;DHT22;11762;59.878;17.686;2023-03-18T16:02:10;4.70;99.90
23188;DHT22;11762;59.878;17.686;2023-03-18T16:04:38;4.70;99.90
23188;DHT22;11762;59.878;17.686;2023-03-18T16:07:15;4.70;99.90
23188;DHT22;11762;59.878;17.686;2023-03-18T16:09:43;4.60;99.90